createdAt,value
2022-12-25T00:01:27.986Z,98733.53
2022-12-25T00:03:54.622Z,98728.44
2022-12-25T00:06:21.293Z,98725.03
2022-12-25T00:08:47.962Z,98721.66
2022-12-25T00:11:17.470Z,98725.94
2022-12-25T00:13:44.681Z,98731.06
2022-12-25T00:16:16.023Z,98734.53
2022-12-25T00:18:42.959Z,98732.81
2022-12-25T00:21:15.196Z,98733.72
2022-12-25T00:23:45.142Z,98736.31
2022-12-25T00:26:15.478Z,98742.34
2022-12-25T00:28:42.644Z,98750.06
2022-12-25T00:31:12.488Z,98752.66
2022-12-25T00:33:41.173Z,98756.09
2022-12-25T00:36:08.918Z,98764.72
2022-12-25T00:38:37.199Z,98772.47
2022-12-25T00:41:15.272Z,98784.50
2022-12-25T00:43:42.337Z,98785.38
2022-12-25T00:46:11.022Z,98772.56
2022-12-25T00:48:38.558Z,98771.72
2022-12-25T00:51:08.544Z,98769.16
2022-12-25T00:53:35.136Z,98769.19
2022-12-25T00:56:04.705Z,98761.50
2022-12-25T00:58:33.571Z,98771.78
2022-12-25T01:01:00.557Z,98776.97
2022-12-25T01:03:27.336Z,98774.41
2022-12-25T01:06:00.207Z,98775.28
2022-12-25T01:08:27.958Z,98776.09
2022-12-25T01:11:00.219Z,98778.69
2022-12-25T01:13:27.607Z,98788.97
2022-12-25T01:15:54.709Z,98780.44
2022-12-25T01:18:23.052Z,98782.16
2022-12-25T01:20:49.685Z,98780.47
2022-12-25T01:23:17.145Z,98790.75
2022-12-25T01:25:43.806Z,98798.47
2022-12-25T01:28:10.316Z,98791.63
2022-12-25T01:30:36.810Z,98793.38
2022-12-25T01:33:03.491Z,98797.66
2022-12-25T01:35:30.107Z,98798.53
2022-12-25T01:37:56.827Z,98786.53
2022-12-25T01:40:23.510Z,98791.72
2022-12-25T01:42:50.172Z,98785.72
2022-12-25T01:45:43.831Z,98790.84
2022-12-25T01:48:17.142Z,98807.16
2022-12-25T01:50:47.623Z,98809.75
2022-12-25T01:53:14.435Z,98811.47
2022-12-25T01:55:44.321Z,98830.34
2022-12-25T01:58:10.927Z,98831.19
2022-12-25T02:00:37.498Z,98836.34
2022-12-25T02:03:04.928Z,98846.59
2022-12-25T02:05:33.883Z,98856.03
2022-12-25T02:08:08.560Z,98862.00
2022-12-25T02:10:35.141Z,98848.34
2022-12-25T02:13:02.348Z,98854.34
2022-12-25T02:15:40.484Z,98849.22
2022-12-25T02:18:14.897Z,98850.94
2022-12-25T02:20:50.852Z,98855.28
2022-12-25T02:23:38.473Z,98865.56
2022-12-25T02:26:30.811Z,98856.19
2022-12-25T02:29:05.197Z,98851.91
2022-12-25T02:31:31.836Z,98847.66
2022-12-25T02:34:16.821Z,98851.06
2022-12-25T02:36:53.901Z,98847.66
2022-12-25T02:40:00.741Z,98842.53
2022-12-25T02:42:57.811Z,98837.38
2022-12-25T02:45:57.853Z,98838.25
2022-12-25T02:48:49.128Z,98841.69
2022-12-25T02:51:37.937Z,98848.50
2022-12-25T02:54:28.645Z,98841.63
2022-12-25T02:57:17.040Z,98839.94
2022-12-25T03:00:05.979Z,98849.34
2022-12-25T03:02:52.578Z,98851.88
2022-12-25T03:05:41.509Z,98841.59
2022-12-25T03:08:13.958Z,98856.16
2022-12-25T03:11:03.661Z,98851.03
2022-12-25T03:13:36.796Z,98841.56
2022-12-25T03:16:22.916Z,98847.59
2022-12-25T03:18:49.576Z,98850.19
2022-12-25T03:21:34.840Z,98857.03
2022-12-25T03:24:20.677Z,98860.44
2022-12-25T03:26:56.656Z,98863.88
2022-12-25T03:29:49.427Z,98863.00
2022-12-25T03:32:22.710Z,98863.00
2022-12-25T03:35:25.819Z,98856.16
2022-12-25T03:38:35.640Z,98866.44
2022-12-25T03:41:35.869Z,98861.31
2022-12-25T03:44:35.020Z,98857.03
2022-12-25T03:47:26.801Z,98860.50
2022-12-25T03:50:25.796Z,98856.19
2022-12-25T03:53:13.321Z,98856.22
2022-12-25T03:55:59.787Z,98864.78
2022-12-25T03:58:45.981Z,98863.09
2022-12-25T04:01:32.565Z,98867.38
2022-12-25T04:04:17.581Z,98869.97
2022-12-25T04:07:02.727Z,98871.72
2022-12-25T04:09:47.941Z,98872.56
2022-12-25T04:12:32.797Z,98881.16
2022-12-25T04:15:18.221Z,98885.47
2022-12-25T04:18:03.218Z,98883.72
2022-12-25T04:20:48.547Z,98877.75
2022-12-25T04:23:33.813Z,98878.63
2022-12-25T04:26:19.384Z,98866.66
2022-12-25T04:29:04.721Z,98864.13
2022-12-25T04:31:49.929Z,98879.56
2022-12-25T04:34:34.962Z,98862.47
2022-12-25T04:37:01.524Z,98864.19
2022-12-25T04:39:28.043Z,98870.22
2022-12-25T04:41:54.594Z,98862.53
2022-12-25T04:44:21.171Z,98862.53
2022-12-25T04:46:47.683Z,98859.13
2022-12-25T04:49:14.181Z,98869.41
2022-12-25T04:51:40.735Z,98877.97
2022-12-25T04:54:07.312Z,98876.28
2022-12-25T04:56:34.471Z,98873.72
2022-12-25T04:59:03.025Z,98882.28
2022-12-25T05:01:29.884Z,98888.28
2022-12-25T05:03:56.676Z,98891.69
2022-12-25T05:06:23.322Z,98891.72
2022-12-25T05:08:49.930Z,98891.72
2022-12-25T05:11:17.069Z,98883.19
2022-12-25T05:13:44.373Z,98881.47
2022-12-25T05:16:16.926Z,98884.91
2022-12-25T05:18:44.191Z,98882.34
2022-12-25T05:21:12.424Z,98883.19
2022-12-25T05:23:39.366Z,98894.31
2022-12-25T05:26:07.265Z,98888.31
2022-12-25T05:28:35.265Z,98896.88
2022-12-25T05:31:02.228Z,98893.47
2022-12-25T05:33:28.838Z,98899.47
2022-12-25T05:35:55.336Z,98907.16
2022-12-25T05:38:21.876Z,98918.25
2022-12-25T05:40:51.716Z,98925.94
2022-12-25T05:43:19.649Z,98920.81
2022-12-25T05:45:46.328Z,98925.09
2022-12-25T05:48:13.041Z,98921.66
2022-12-25T05:50:39.692Z,98929.38
2022-12-25T05:53:08.820Z,98923.38
2022-12-25T05:55:41.070Z,98925.09
2022-12-25T05:58:08.422Z,98923.38
2022-12-25T06:00:35.392Z,98919.97
2022-12-25T06:03:02.074Z,98923.38
2022-12-25T06:05:28.775Z,98929.34
2022-12-25T06:07:55.524Z,98937.03
2022-12-25T06:10:22.369Z,98946.41
2022-12-25T06:12:48.932Z,98954.09
2022-12-25T06:15:15.576Z,98960.06
2022-12-25T06:17:42.124Z,98957.50
2022-12-25T06:20:09.120Z,98955.78
2022-12-25T06:22:35.718Z,98954.94
2022-12-25T06:25:02.627Z,98962.63
2022-12-25T06:27:29.154Z,98966.03
2022-12-25T06:29:55.792Z,98963.47
2022-12-25T06:32:22.398Z,98972.88
2022-12-25T06:34:49.068Z,98977.13
2022-12-25T06:37:15.651Z,98980.56
2022-12-25T06:39:42.258Z,98983.13
2022-12-25T06:42:09.166Z,98986.56
2022-12-25T06:44:35.732Z,98993.38
2022-12-25T06:47:02.354Z,98984.81
2022-12-25T06:49:28.990Z,98983.13
2022-12-25T06:51:55.948Z,98996.78
2022-12-25T06:54:22.616Z,98995.06
2022-12-25T06:56:49.892Z,99003.63
2022-12-25T06:59:16.530Z,99012.16
2022-12-25T07:01:49.464Z,99013.03
2022-12-25T07:04:21.305Z,99021.59
2022-12-25T07:06:47.867Z,99022.41
2022-12-25T07:09:14.598Z,99019.91
2022-12-25T07:11:41.274Z,99027.56
2022-12-25T07:14:07.959Z,99021.59
2022-12-25T07:16:34.709Z,99025.00
2022-12-25T07:19:01.436Z,99026.75
2022-12-25T07:21:27.997Z,99032.72
2022-12-25T07:23:54.566Z,99042.97
2022-12-25T07:26:21.285Z,99048.97
2022-12-25T07:28:47.880Z,99046.41
2022-12-25T07:31:16.514Z,99039.59
2022-12-25T07:33:43.954Z,99043.00
2022-12-25T07:36:12.962Z,99047.28
2022-12-25T07:38:41.042Z,99059.25
2022-12-25T07:41:10.240Z,99060.13
2022-12-25T07:43:37.121Z,99044.72
2022-12-25T07:46:05.170Z,99054.09
2022-12-25T07:48:33.945Z,99046.44
2022-12-25T07:51:03.542Z,99051.56
2022-12-25T07:53:30.221Z,99059.25
2022-12-25T07:56:05.467Z,99056.69
2022-12-25T07:58:35.321Z,99061.81
2022-12-25T08:01:07.619Z,99064.41
2022-12-25T08:03:35.058Z,99059.25
2022-12-25T08:06:08.201Z,99058.38
2022-12-25T08:08:36.227Z,99053.28
2022-12-25T08:11:03.230Z,99057.53
2022-12-25T08:13:34.443Z,99060.09
2022-12-25T08:16:03.035Z,99060.94
2022-12-25T08:18:32.856Z,99053.25
2022-12-25T08:21:05.011Z,99053.22
2022-12-25T08:23:34.416Z,99055.78
2022-12-25T08:26:05.476Z,99056.63
2022-12-25T08:28:36.070Z,99051.50
2022-12-25T08:31:27.240Z,99049.75
2022-12-25T08:33:56.629Z,99052.31
2022-12-25T08:36:23.653Z,99051.47
2022-12-25T08:38:55.709Z,99048.03
2022-12-25T08:41:25.192Z,99054.84
2022-12-25T08:43:51.795Z,99066.84
2022-12-25T08:46:18.574Z,99066.78
2022-12-25T08:48:46.345Z,99062.53
2022-12-25T08:51:16.404Z,99075.34
2022-12-25T08:53:44.225Z,99076.22
2022-12-25T08:56:11.369Z,99085.63
2022-12-25T08:58:38.427Z,99084.78
2022-12-25T09:01:05.842Z,99077.00
2022-12-25T09:03:32.718Z,99061.63
2022-12-25T09:06:04.512Z,99065.84
2022-12-25T09:08:31.315Z,99068.34
2022-12-25T09:11:10.256Z,99066.59
2022-12-25T09:13:37.966Z,99063.13
2022-12-25T09:16:09.841Z,99069.94
2022-12-25T09:18:37.121Z,99081.88
2022-12-25T09:21:06.388Z,99091.31
2022-12-25T09:23:35.454Z,99087.84
2022-12-25T09:26:04.504Z,99084.41
2022-12-25T09:28:32.138Z,99074.09
2022-12-25T09:30:59.375Z,99078.41
2022-12-25T09:33:26.062Z,99076.63
2022-12-25T09:35:54.657Z,99086.88
2022-12-25T09:38:21.533Z,99090.22
2022-12-25T09:40:48.247Z,99090.16
2022-12-25T09:43:21.345Z,99085.03
2022-12-25T09:45:48.069Z,99086.72
2022-12-25T09:48:16.522Z,99092.69
2022-12-25T09:51:00.114Z,99089.19
2022-12-25T09:53:38.664Z,99097.75
2022-12-25T09:56:16.714Z,99093.41
2022-12-25T09:58:43.908Z,99089.91
2022-12-25T10:01:39.258Z,99088.19
2022-12-25T10:04:12.195Z,99097.59
2022-12-25T10:06:38.784Z,99101.84
2022-12-25T10:09:20.541Z,99105.25
2022-12-25T10:12:00.451Z,99109.50
2022-12-25T10:14:35.478Z,99107.75
2022-12-25T10:17:09.293Z,99110.31
2022-12-25T10:19:41.606Z,99108.59
2022-12-25T10:22:27.806Z,99107.72
2022-12-25T10:24:58.071Z,99111.97
2022-12-25T10:27:42.919Z,99109.38
2022-12-25T10:30:16.002Z,99107.66
2022-12-25T10:32:44.534Z,99101.59
2022-12-25T10:35:16.886Z,99094.78
2022-12-25T10:37:46.509Z,99101.59
2022-12-25T10:40:25.058Z,99089.53
2022-12-25T10:43:50.066Z,99093.84
2022-12-25T10:46:17.993Z,99079.25
2022-12-25T10:48:56.171Z,99084.31
2022-12-25T10:51:33.563Z,99081.78
2022-12-25T10:54:02.788Z,99078.34
2022-12-25T10:56:29.987Z,99077.44
2022-12-25T10:59:07.388Z,99080.84
2022-12-25T11:01:34.259Z,99085.13
2022-12-25T11:04:01.164Z,99080.75
2022-12-25T11:06:31.588Z,99079.84
2022-12-25T11:09:00.790Z,99074.66
2022-12-25T11:11:28.926Z,99065.16
2022-12-25T11:14:01.901Z,99060.03
2022-12-25T11:16:40.346Z,99061.81
2022-12-25T11:19:33.220Z,99064.47
2022-12-25T11:22:02.608Z,99061.16
2022-12-25T11:24:31.703Z,99062.94
2022-12-25T11:27:01.521Z,99058.66
2022-12-25T11:30:04.287Z,99056.09
2022-12-25T11:33:06.867Z,99046.63
2022-12-25T11:35:46.757Z,99040.56
2022-12-25T11:38:13.800Z,99039.59
2022-12-25T11:40:49.219Z,99024.00
2022-12-25T11:43:23.732Z,99018.75
2022-12-25T11:46:09.231Z,99015.25
2022-12-25T11:48:50.102Z,99025.50
2022-12-25T11:51:17.977Z,99035.72
2022-12-25T11:53:52.933Z,99027.06
2022-12-25T11:56:24.346Z,99028.75
2022-12-25T11:59:27.803Z,99019.25
2022-12-25T12:02:11.131Z,99019.22
2022-12-25T12:04:46.579Z,99017.47
2022-12-25T12:07:29.443Z,99010.59
2022-12-25T12:10:30.336Z,99020.09
2022-12-25T12:13:15.640Z,99006.38
2022-12-25T12:15:43.847Z,99002.06
2022-12-25T12:18:33.009Z,98996.19
2022-12-25T12:21:30.358Z,98993.59
2022-12-25T12:24:26.131Z,98991.00
2022-12-25T12:27:02.656Z,98989.22
2022-12-25T12:29:39.305Z,98996.88
2022-12-25T12:32:06.659Z,98989.91
2022-12-25T12:34:42.774Z,98987.22
2022-12-25T12:37:40.694Z,98990.56
2022-12-25T12:40:22.100Z,98989.66
2022-12-25T12:42:51.123Z,98980.13
2022-12-25T12:45:24.013Z,98980.00
2022-12-25T12:47:52.608Z,98977.38
2022-12-25T12:50:42.612Z,98993.63
2022-12-25T12:53:27.131Z,99004.78
2022-12-25T12:55:53.736Z,98994.41
2022-12-25T12:58:33.731Z,98993.59
2022-12-25T13:01:12.643Z,98991.16
2022-12-25T13:03:48.766Z,98987.72
2022-12-25T13:06:17.787Z,98985.09
2022-12-25T13:08:55.261Z,98983.34
2022-12-25T13:11:26.306Z,98981.63
2022-12-25T13:13:54.304Z,98976.47
2022-12-25T13:16:26.959Z,98973.03
2022-12-25T13:18:54.567Z,98976.47
2022-12-25T13:21:23.003Z,98969.66
2022-12-25T13:23:55.325Z,98953.31
2022-12-25T13:26:21.813Z,98948.09
2022-12-25T13:28:48.372Z,98946.38
2022-12-25T13:31:17.763Z,98944.78
2022-12-25T13:33:49.466Z,98949.06
2022-12-25T13:36:16.722Z,98961.97
2022-12-25T13:38:46.807Z,98972.31
2022-12-25T13:41:39.207Z,98967.19
2022-12-25T13:44:14.615Z,98969.81
2022-12-25T13:46:41.269Z,98964.63
2022-12-25T13:49:14.100Z,98969.81
2022-12-25T13:51:40.676Z,98961.22
2022-12-25T13:54:07.213Z,98962.88
2022-12-25T13:56:34.402Z,98955.97
2022-12-25T13:59:00.928Z,98950.13
2022-12-25T14:01:28.159Z,98951.09
2022-12-25T14:03:56.582Z,98970.78
2022-12-25T14:06:27.704Z,98970.84
2022-12-25T14:08:55.352Z,98951.09
2022-12-25T14:11:23.229Z,98957.19
2022-12-25T14:13:51.130Z,98951.25
2022-12-25T14:16:18.811Z,98952.19
2022-12-25T14:18:52.507Z,98956.53
2022-12-25T14:21:41.000Z,98949.78
2022-12-25T14:24:14.991Z,98952.41
2022-12-25T14:26:41.637Z,98950.75
2022-12-25T14:29:16.524Z,98952.47
2022-12-25T14:31:44.855Z,98955.06
2022-12-25T14:34:15.343Z,98957.66
2022-12-25T14:36:42.173Z,98959.44
2022-12-25T14:39:22.587Z,98950.88
2022-12-25T14:41:53.851Z,98945.78
2022-12-25T14:44:36.115Z,98949.28
2022-12-25T14:47:20.914Z,98950.19
2022-12-25T14:49:48.229Z,98950.28
2022-12-25T14:52:42.305Z,98943.47
2022-12-25T14:55:20.251Z,98928.03
2022-12-25T14:57:56.092Z,98925.56
2022-12-25T15:00:26.710Z,98934.19
2022-12-25T15:02:56.021Z,98928.25
2022-12-25T15:05:33.623Z,98924.84
2022-12-25T15:08:11.131Z,98923.16
2022-12-25T15:13:26.601Z,98924.91
2022-12-25T15:16:14.627Z,98921.53
2022-12-25T15:18:44.056Z,98912.97
2022-12-25T15:21:16.853Z,98918.97
2022-12-25T15:23:43.555Z,98926.72
2022-12-25T15:26:13.676Z,98913.81
2022-12-25T15:28:40.240Z,98912.97
2022-12-25T15:31:30.173Z,98921.53
2022-12-25T15:34:00.430Z,98916.31
2022-12-25T15:36:27.650Z,98908.59
2022-12-25T15:38:54.748Z,98911.19
2022-12-25T15:41:46.335Z,98910.25
2022-12-25T15:44:13.062Z,98913.72
2022-12-25T15:46:39.739Z,98903.38
2022-12-25T15:49:06.356Z,98898.22
2022-12-25T15:51:33.329Z,98907.66
2022-12-25T15:53:59.889Z,98903.41
2022-12-25T15:56:27.039Z,98904.22
2022-12-25T15:58:53.605Z,98914.53
2022-12-25T16:01:21.369Z,98900.78
2022-12-25T16:03:50.140Z,98908.50
2022-12-25T16:06:18.330Z,98903.28
2022-12-25T16:08:45.678Z,98906.72
2022-12-25T16:11:12.536Z,98920.44
2022-12-25T16:13:39.122Z,98925.56
2022-12-25T16:16:07.002Z,98920.41
2022-12-25T16:18:33.821Z,98919.59
2022-12-25T16:21:00.573Z,98928.22
2022-12-25T16:23:27.393Z,98922.19
2022-12-25T16:25:54.036Z,98917.00
2022-12-25T16:28:20.561Z,98916.94
2022-12-25T16:30:47.255Z,98905.78
2022-12-25T16:33:13.927Z,98903.19
2022-12-25T16:35:40.507Z,98899.72
2022-12-25T16:38:07.061Z,98890.22
2022-12-25T16:40:34.201Z,98879.88
2022-12-25T16:43:00.801Z,98883.28
2022-12-25T16:45:27.482Z,98881.53
2022-12-25T16:47:54.130Z,98877.25
2022-12-25T16:50:20.711Z,98872.88
2022-12-25T16:52:47.412Z,98865.13
2022-12-25T16:55:14.042Z,98873.69
2022-12-25T16:57:40.637Z,98889.13
2022-12-25T17:00:08.730Z,98898.53
2022-12-25T17:02:35.451Z,98889.88
2022-12-25T17:05:02.410Z,98889.88
2022-12-25T17:07:28.957Z,98898.41
2022-12-25T17:09:57.178Z,98890.66
2022-12-25T17:12:23.779Z,98882.94
2022-12-25T17:14:50.316Z,98886.31
2022-12-25T17:17:16.858Z,98888.03
2022-12-25T17:19:43.448Z,98891.47
2022-12-25T17:22:10.035Z,98880.25
2022-12-25T17:24:37.445Z,98885.41
2022-12-25T17:27:04.408Z,98882.81
2022-12-25T17:29:32.064Z,98875.97
2022-12-25T17:31:58.799Z,98881.91
2022-12-25T17:34:25.451Z,98870.63
2022-12-25T17:36:53.519Z,98865.41
2022-12-25T17:39:20.056Z,98854.28
2022-12-25T17:41:49.444Z,98849.94
2022-12-25T17:44:16.609Z,98845.72
2022-12-25T17:46:43.683Z,98840.53
2022-12-25T17:49:15.672Z,98832.78
2022-12-25T17:51:42.362Z,98821.56
2022-12-25T17:54:09.641Z,98816.41
2022-12-25T17:56:36.977Z,98825.84
2022-12-25T17:59:09.742Z,98833.50
2022-12-25T18:01:38.850Z,98821.53
2022-12-25T18:04:06.739Z,98818.03
2022-12-25T18:06:36.156Z,98815.41
2022-12-25T18:09:02.843Z,98807.63
2022-12-25T18:11:32.882Z,98812.72
2022-12-25T18:14:02.584Z,98825.56
2022-12-25T18:16:30.950Z,98823.78
2022-12-25T18:18:59.649Z,98843.47
2022-12-25T18:21:26.657Z,98836.53
2022-12-25T18:23:53.250Z,98829.56
2022-12-25T18:26:20.930Z,98815.84
2022-12-25T18:28:48.894Z,98804.72
2022-12-25T18:31:21.508Z,98796.97
2022-12-25T18:33:49.125Z,98794.31
2022-12-25T18:36:21.070Z,98801.09
2022-12-25T18:38:48.968Z,98823.41
2022-12-25T18:41:15.980Z,98822.44
2022-12-25T18:43:53.548Z,98818.91
2022-12-25T18:46:24.970Z,98815.38
2022-12-25T18:48:52.916Z,98810.97
2022-12-25T18:51:19.587Z,98817.75
2022-12-25T18:53:46.303Z,98828.81
2022-12-25T18:56:18.294Z,98825.28
2022-12-25T18:58:46.800Z,98826.91
2022-12-25T19:01:24.130Z,98807.03
2022-12-25T19:03:53.146Z,98806.97
2022-12-25T19:06:33.952Z,98795.78
2022-12-25T19:09:00.517Z,98787.94
2022-12-25T19:11:47.101Z,98766.44
2022-12-25T19:14:14.208Z,98762.06
2022-12-25T19:16:41.147Z,98742.22
2022-12-25T19:19:07.803Z,98756.81
2022-12-25T19:21:34.337Z,98776.56
2022-12-25T19:24:00.929Z,98786.81
2022-12-25T19:26:28.036Z,98798.84
2022-12-25T19:29:00.946Z,98803.91
2022-12-25T19:31:27.567Z,98803.81
2022-12-25T19:33:54.192Z,98799.47
2022-12-25T19:36:20.832Z,98802.03
2022-12-25T19:38:47.343Z,98795.06
2022-12-25T19:41:17.031Z,98792.44
2022-12-25T19:43:45.687Z,98785.50
2022-12-25T19:46:18.847Z,98777.72
2022-12-25T19:48:48.817Z,98791.47
2022-12-25T19:51:22.058Z,98794.00
2022-12-25T19:53:48.753Z,98787.84
2022-12-25T19:56:15.716Z,98783.50
2022-12-25T19:58:42.499Z,98768.00
2022-12-25T20:01:19.699Z,98768.78
2022-12-25T20:03:47.520Z,98777.31
2022-12-25T20:06:21.926Z,98779.00
2022-12-25T20:08:52.710Z,98768.78
2022-12-25T20:11:20.636Z,98767.06
2022-12-25T20:13:47.367Z,98768.00
2022-12-25T20:16:13.962Z,98760.22
2022-12-25T20:18:40.738Z,98754.16
2022-12-25T20:21:14.261Z,98758.44
2022-12-25T20:23:42.840Z,98751.50
2022-12-25T20:26:10.969Z,98753.31
2022-12-25T20:28:37.975Z,98758.47
2022-12-25T20:31:29.624Z,98751.56
2022-12-25T20:33:58.059Z,98744.66
2022-12-25T20:36:26.571Z,98761.88
2022-12-25T20:38:55.019Z,98757.59
2022-12-25T20:41:27.354Z,98770.38
2022-12-25T20:43:54.871Z,98773.78
2022-12-25T20:46:22.483Z,98778.88
2022-12-25T20:48:49.224Z,98780.59
2022-12-25T20:51:18.695Z,98774.47
2022-12-25T20:53:46.165Z,98755.56
2022-12-25T20:56:14.804Z,98745.22
2022-12-25T20:58:41.945Z,98746.00
2022-12-25T21:01:12.173Z,98745.09
2022-12-25T21:03:41.667Z,98745.16
2022-12-25T21:06:09.000Z,98756.22
2022-12-25T21:08:36.607Z,98745.06
2022-12-25T21:11:04.299Z,98732.91
2022-12-25T21:13:34.431Z,98739.78
2022-12-25T21:16:05.213Z,98726.03
2022-12-25T21:18:31.799Z,98731.16
2022-12-25T21:20:59.514Z,98719.00
2022-12-25T21:23:28.944Z,98721.59
2022-12-25T21:25:55.510Z,98708.66
2022-12-25T21:28:23.133Z,98697.44
2022-12-25T21:30:49.857Z,98706.97
2022-12-25T21:33:34.781Z,98694.09
2022-12-25T21:36:11.872Z,98698.50
2022-12-25T21:38:39.049Z,98706.16
2022-12-25T21:41:08.804Z,98713.97
2022-12-25T21:43:36.766Z,98717.44
2022-12-25T21:46:09.076Z,98728.56
2022-12-25T21:48:37.280Z,98739.78
2022-12-25T21:51:23.861Z,98745.78
2022-12-25T21:53:51.039Z,98755.28
2022-12-25T21:56:18.051Z,98763.03
2022-12-25T21:58:44.716Z,98750.06
2022-12-25T22:01:11.917Z,98731.09
2022-12-25T22:03:38.648Z,98730.25
2022-12-25T22:06:24.000Z,98731.94
2022-12-25T22:08:50.535Z,98717.31
2022-12-25T22:11:35.860Z,98710.47
2022-12-25T22:14:20.753Z,98708.75
2022-12-25T22:17:27.020Z,98701.00
2022-12-25T22:19:53.762Z,98700.19
2022-12-25T22:22:23.103Z,98702.75
2022-12-25T22:24:54.878Z,98704.53
2022-12-25T22:27:22.090Z,98698.50
2022-12-25T22:29:48.672Z,98703.66
2022-12-25T22:32:20.439Z,98706.97
2022-12-25T22:34:47.553Z,98700.13
2022-12-25T22:37:17.608Z,98690.56
2022-12-25T22:39:45.224Z,98696.63
2022-12-25T22:42:12.355Z,98700.94
2022-12-25T22:44:39.046Z,98693.19
2022-12-25T22:47:05.568Z,98682.81
2022-12-25T22:49:32.095Z,98682.78
2022-12-25T22:51:58.610Z,98675.81
2022-12-25T22:54:28.450Z,98667.19
2022-12-25T22:56:55.222Z,98663.75
2022-12-25T22:59:22.971Z,98680.16
2022-12-25T23:01:50.824Z,98687.91
2022-12-25T23:04:17.724Z,98671.47
2022-12-25T23:06:45.107Z,98680.03
2022-12-25T23:09:17.542Z,98676.59
2022-12-25T23:11:48.818Z,98667.09
2022-12-25T23:14:34.011Z,98668.78
2022-12-25T23:17:00.547Z,98675.66
2022-12-25T23:19:45.949Z,98674.78
2022-12-25T23:22:32.183Z,98679.91
2022-12-25T23:25:17.831Z,98661.75
2022-12-25T23:27:45.580Z,98663.50
2022-12-25T23:30:15.342Z,98651.50
2022-12-25T23:32:43.407Z,98636.06
2022-12-25T23:35:11.124Z,98644.94
2022-12-25T23:37:37.682Z,98645.91
2022-12-25T23:40:04.795Z,98640.81
2022-12-25T23:42:31.289Z,98643.50
2022-12-25T23:44:57.832Z,98641.09
2022-12-25T23:47:25.310Z,98636.78
2022-12-25T23:49:51.829Z,98626.44
2022-12-25T23:52:18.358Z,98638.59
2022-12-25T23:54:45.090Z,98651.56
2022-12-25T23:57:11.629Z,98648.91
2022-12-25T23:59:38.238Z,98661.75
